Forside
METAR-TAF:

METAR-TAF

Lufthavne :

Esbjerg Lufthavn

Esbjerg, Danmark

Breddekreds: 55-32N, længdekreds: 008-34E, højde: 30 m

Aktuelle vejr

Denne rapport blev lavet for 37 minutter siden, kl. 14:50 UTC
Vind 7 kt fra vest
Temperatur 14°C
Fugtighed 58%
Tryk 1023 hPa
Sigt 10 km eller mere

METAR: EKEB 081450Z AUTO 26007KT 9999 NCD 14/06 Q1023

Tid: 17:27 (15:27 UTC)

Vejrudsigter

Denne rapport blev lavet for 1 time og 7 minutter siden, kl. 14:20 UTC
Foreløbig gælder fra 08 på 15 UTC til 08 på 22 UTC
Vind 8 kt fra vest
Sigt 10 km eller mere
ingen skyer under 1500m og ingen cumulonimbus

TAF: EKEB 081420Z 0815/0822 27008KT CAVOK

Vejrobservationer og prognoser fra mere end 4000 lufthavne (METAR og TAF).

De gule og røde prikker repræsenterer de meteorologiske stationer.

Flyt musen over at se navnet på stationen.

Så klik over at se vejr observationer og prognoser.

At skifte det kort: Klik på de grønne knapper med et sort kors for at zoome ind; på den grønne knap med en bindestreg for at zoome ud; eller på de grønne pile for tilstødende kort.


METAR-TAF: